Terminal Aerodrome Forecast
Issued by NWS Mobile, AL

Home | Current Version | Previous Version | Text Only | Print | Product List | Glossary On
Versions: 1 2 3 4 5 6 7 8 9 10 11 12 13 14 15 16 17 18 19 20 21 22 23 24 25 26 27 28 29
000
FTUS44 KMOB 281121
TAFPNS
TAF
KPNS 281121Z 2812/2912 32004KT P6SM SCT250
     FM281500 33007KT P6SM SKC
     FM281700 18006KT P6SM SCT250 PROB30 2821/2902 4SM TSRA BKN025CB
     FM290300 30005KT P6SM SKC=

USA.gov is the U.S. government's official web portal to all federal, state and local government web resources and services.